Wan I Gan, Montana
Current Conditions -  °F | °C
As of 3:53 PM on Thursday 27 Nov 2014 (Local Time) from KLVM Reporting Station
Few Clouds Few Clouds  
Wind Chill: 55°   Ceiling: Unl
Heat Index: 55°   Visibility: 10mi
Dew Point: 29°   Wind: 35mph
Humidity: 37%   Direction: 220°SW
Pressure: 29.89"   Gusts: 45mph
Location:  45.4304°N, 110.521°W
Report Text: KLVM 272253Z AUTO 22030G39KT 10SM FEW090 13/M02 A2989 RMK AO2 PK WND 22039/2251 SLP108 T01281017
Loading
Personal Weather Stations






























Interactive Weather Map New forecast layout! Learn more

10-Day Weather Forecast

Advertisements
Track Severe Weather on mobile